sensor_id;sensor_type;location;lat;lon;timestamp;P1;durP1;ratioP1;P2;durP2;ratioP2
20832;SDS011;56075;51.264;7.150;2023-02-13T00:00:37;8.43;;;3.77;;
20832;SDS011;56075;51.264;7.150;2023-02-13T00:03:08;9.57;;;4.50;;
20832;SDS011;56075;51.264;7.150;2023-02-13T00:05:40;9.68;;;4.30;;
20832;SDS011;56075;51.264;7.150;2023-02-13T00:08:11;11.27;;;4.70;;
20832;SDS011;56075;51.264;7.150;2023-02-13T00:10:42;8.60;;;4.15;;
20832;SDS011;56075;51.264;7.150;2023-02-13T00:13:14;10.13;;;4.30;;
20832;SDS011;56075;51.264;7.150;2023-02-13T00:15:53;9.83;;;4.27;;
20832;SDS011;56075;51.264;7.150;2023-02-13T00:18:26;12.90;;;4.83;;
20832;SDS011;56075;51.264;7.150;2023-02-13T00:21:02;10.18;;;4.90;;
20832;SDS011;56075;51.264;7.150;2023-02-13T00:23:36;10.23;;;4.90;;
20832;SDS011;56075;51.264;7.150;2023-02-13T00:26:12;10.80;;;4.80;;
20832;SDS011;56075;51.264;7.150;2023-02-13T00:28:47;11.57;;;4.77;;
20832;SDS011;56075;51.264;7.150;2023-02-13T00:31:19;8.63;;;4.10;;
20832;SDS011;56075;51.264;7.150;2023-02-13T00:33:51;9.00;;;4.43;;
20832;SDS011;56075;51.264;7.150;2023-02-13T00:36:22;8.63;;;4.13;;
20832;SDS011;56075;51.264;7.150;2023-02-13T00:38:55;9.73;;;4.37;;
20832;SDS011;56075;51.264;7.150;2023-02-13T00:41:26;10.27;;;4.13;;
20832;SDS011;56075;51.264;7.150;2023-02-13T00:43:57;9.57;;;4.57;;
20832;SDS011;56075;51.264;7.150;2023-02-13T00:46:29;9.70;;;4.77;;
20832;SDS011;56075;51.264;7.150;2023-02-13T00:49:00;13.03;;;5.23;;
20832;SDS011;56075;51.264;7.150;2023-02-13T00:51:31;11.90;;;5.27;;
20832;SDS011;56075;51.264;7.150;2023-02-13T00:54:03;10.87;;;4.83;;
20832;SDS011;56075;51.264;7.150;2023-02-13T00:56:34;11.50;;;5.00;;
20832;SDS011;56075;51.264;7.150;2023-02-13T00:59:05;11.10;;;4.87;;
20832;SDS011;56075;51.264;7.150;2023-02-13T01:01:37;11.75;;;5.00;;
20832;SDS011;56075;51.264;7.150;2023-02-13T01:04:08;9.63;;;4.60;;
20832;SDS011;56075;51.264;7.150;2023-02-13T01:06:39;10.10;;;4.70;;
20832;SDS011;56075;51.264;7.150;2023-02-13T01:09:11;10.93;;;5.10;;
20832;SDS011;56075;51.264;7.150;2023-02-13T01:11:42;11.90;;;5.30;;
20832;SDS011;56075;51.264;7.150;2023-02-13T01:14:14;11.13;;;4.77;;
20832;SDS011;56075;51.264;7.150;2023-02-13T01:16:45;9.93;;;4.53;;
20832;SDS011;56075;51.264;7.150;2023-02-13T01:19:16;11.93;;;5.27;;
20832;SDS011;56075;51.264;7.150;2023-02-13T01:21:48;11.70;;;4.93;;
20832;SDS011;56075;51.264;7.150;2023-02-13T01:24:19;13.40;;;5.10;;
20832;SDS011;56075;51.264;7.150;2023-02-13T01:26:50;11.73;;;5.10;;
20832;SDS011;56075;51.264;7.150;2023-02-13T01:29:23;12.17;;;5.37;;
20832;SDS011;56075;51.264;7.150;2023-02-13T01:31:54;11.77;;;5.33;;
20832;SDS011;56075;51.264;7.150;2023-02-13T01:34:25;9.57;;;4.80;;
20832;SDS011;56075;51.264;7.150;2023-02-13T01:36:57;11.27;;;5.07;;
20832;SDS011;56075;51.264;7.150;2023-02-13T01:39:28;11.63;;;5.27;;
20832;SDS011;56075;51.264;7.150;2023-02-13T01:42:00;11.37;;;5.43;;
20832;SDS011;56075;51.264;7.150;2023-02-13T01:44:44;9.93;;;4.67;;
20832;SDS011;56075;51.264;7.150;2023-02-13T01:47:39;10.03;;;4.70;;
20832;SDS011;56075;51.264;7.150;2023-02-13T01:50:17;9.60;;;4.53;;
20832;SDS011;56075;51.264;7.150;2023-02-13T01:55:30;9.67;;;5.17;;
20832;SDS011;56075;51.264;7.150;2023-02-13T01:58:06;9.13;;;4.03;;
20832;SDS011;56075;51.264;7.150;2023-02-13T02:00:42;10.27;;;4.30;;
20832;SDS011;56075;51.264;7.150;2023-02-13T02:06:17;9.13;;;3.97;;
20832;SDS011;56075;51.264;7.150;2023-02-13T02:08:51;8.63;;;3.90;;
20832;SDS011;56075;51.264;7.150;2023-02-13T02:11:34;8.93;;;3.73;;
20832;SDS011;56075;51.264;7.150;2023-02-13T02:14:08;8.97;;;3.50;;
20832;SDS011;56075;51.264;7.150;2023-02-13T02:16:40;7.53;;;3.57;;
20832;SDS011;56075;51.264;7.150;2023-02-13T02:36:18;5.83;;;3.00;;
20832;SDS011;56075;51.264;7.150;2023-02-13T02:39:13;5.57;;;3.13;;
20832;SDS011;56075;51.264;7.150;2023-02-13T02:41:59;6.60;;;3.00;;
20832;SDS011;56075;51.264;7.150;2023-02-13T02:53:06;6.57;;;3.00;;
20832;SDS011;56075;51.264;7.150;2023-02-13T02:58:46;8.37;;;3.33;;
20832;SDS011;56075;51.264;7.150;2023-02-13T03:01:44;7.73;;;3.53;;
20832;SDS011;56075;51.264;7.150;2023-02-13T03:04:37;7.90;;;3.40;;
20832;SDS011;56075;51.264;7.150;2023-02-13T03:07:30;8.00;;;3.47;;
20832;SDS011;56075;51.264;7.150;2023-02-13T03:10:03;10.43;;;3.57;;
20832;SDS011;56075;51.264;7.150;2023-02-13T03:13:04;7.37;;;3.40;;
20832;SDS011;56075;51.264;7.150;2023-02-13T03:15:51;7.73;;;3.30;;
20832;SDS011;56075;51.264;7.150;2023-02-13T03:18:46;9.13;;;3.23;;
20832;SDS011;56075;51.264;7.150;2023-02-13T03:45:08;9.03;;;3.97;;
20832;SDS011;56075;51.264;7.150;2023-02-13T03:48:03;8.03;;;3.63;;
20832;SDS011;56075;51.264;7.150;2023-02-13T03:50:40;8.97;;;4.13;;
20832;SDS011;56075;51.264;7.150;2023-02-13T03:53:13;10.53;;;4.70;;
20832;SDS011;56075;51.264;7.150;2023-02-13T03:55:46;10.33;;;4.40;;
20832;SDS011;56075;51.264;7.150;2023-02-13T03:58:40;9.33;;;3.83;;
20832;SDS011;56075;51.264;7.150;2023-02-13T04:01:33;8.73;;;4.30;;
20832;SDS011;56075;51.264;7.150;2023-02-13T04:04:08;10.17;;;4.03;;
20832;SDS011;56075;51.264;7.150;2023-02-13T04:09:19;10.03;;;4.60;;
20832;SDS011;56075;51.264;7.150;2023-02-13T04:14:42;10.87;;;4.70;;
20832;SDS011;56075;51.264;7.150;2023-02-13T04:17:21;10.93;;;4.77;;
20832;SDS011;56075;51.264;7.150;2023-02-13T04:19:54;12.77;;;4.60;;
20832;SDS011;56075;51.264;7.150;2023-02-13T04:22:25;10.67;;;4.70;;
20832;SDS011;56075;51.264;7.150;2023-02-13T04:24:57;10.13;;;4.50;;
20832;SDS011;56075;51.264;7.150;2023-02-13T04:27:28;10.13;;;4.17;;
20832;SDS011;56075;51.264;7.150;2023-02-13T04:29:59;10.47;;;4.57;;
20832;SDS011;56075;51.264;7.150;2023-02-13T04:32:31;12.33;;;4.47;;
20832;SDS011;56075;51.264;7.150;2023-02-13T04:35:02;9.67;;;4.83;;
20832;SDS011;56075;51.264;7.150;2023-02-13T04:37:33;10.33;;;4.60;;
20832;SDS011;56075;51.264;7.150;2023-02-13T04:40:05;11.67;;;5.43;;
20832;SDS011;56075;51.264;7.150;2023-02-13T04:42:36;9.30;;;4.20;;
20832;SDS011;56075;51.264;7.150;2023-02-13T04:45:08;11.67;;;4.73;;
20832;SDS011;56075;51.264;7.150;2023-02-13T04:47:39;10.30;;;4.60;;
20832;SDS011;56075;51.264;7.150;2023-02-13T04:50:11;11.40;;;4.90;;
20832;SDS011;56075;51.264;7.150;2023-02-13T04:52:42;10.53;;;4.50;;
20832;SDS011;56075;51.264;7.150;2023-02-13T04:55:13;11.77;;;5.10;;
20832;SDS011;56075;51.264;7.150;2023-02-13T04:57:45;11.53;;;5.20;;
20832;SDS011;56075;51.264;7.150;2023-02-13T05:00:17;10.87;;;5.13;;
20832;SDS011;56075;51.264;7.150;2023-02-13T05:02:50;10.23;;;4.40;;
20832;SDS011;56075;51.264;7.150;2023-02-13T05:05:21;12.70;;;5.17;;
20832;SDS011;56075;51.264;7.150;2023-02-13T05:07:53;11.40;;;5.07;;
20832;SDS011;56075;51.264;7.150;2023-02-13T05:10:24;12.60;;;5.27;;
20832;SDS011;56075;51.264;7.150;2023-02-13T05:12:55;13.00;;;5.33;;
20832;SDS011;56075;51.264;7.150;2023-02-13T05:15:27;12.93;;;4.90;;
20832;SDS011;56075;51.264;7.150;2023-02-13T05:17:58;12.10;;;4.90;;
20832;SDS011;56075;51.264;7.150;2023-02-13T05:20:29;14.47;;;5.57;;
20832;SDS011;56075;51.264;7.150;2023-02-13T05:23:01;12.47;;;5.47;;
20832;SDS011;56075;51.264;7.150;2023-02-13T05:25:50;12.67;;;5.57;;
20832;SDS011;56075;51.264;7.150;2023-02-13T05:28:21;15.77;;;6.10;;
20832;SDS011;56075;51.264;7.150;2023-02-13T05:31:16;13.03;;;5.30;;
20832;SDS011;56075;51.264;7.150;2023-02-13T05:33:47;12.37;;;5.63;;
20832;SDS011;56075;51.264;7.150;2023-02-13T05:36:18;12.13;;;5.20;;
20832;SDS011;56075;51.264;7.150;2023-02-13T05:38:50;11.03;;;5.33;;
20832;SDS011;56075;51.264;7.150;2023-02-13T05:41:21;11.83;;;5.63;;
20832;SDS011;56075;51.264;7.150;2023-02-13T05:43:52;12.27;;;5.50;;
20832;SDS011;56075;51.264;7.150;2023-02-13T05:46:24;11.60;;;5.03;;
20832;SDS011;56075;51.264;7.150;2023-02-13T05:48:55;10.47;;;5.03;;
20832;SDS011;56075;51.264;7.150;2023-02-13T05:51:26;13.33;;;5.67;;
20832;SDS011;56075;51.264;7.150;2023-02-13T05:53:58;12.17;;;5.50;;
20832;SDS011;56075;51.264;7.150;2023-02-13T05:56:29;14.03;;;5.70;;
20832;SDS011;56075;51.264;7.150;2023-02-13T05:59:00;12.27;;;5.70;;
20832;SDS011;56075;51.264;7.150;2023-02-13T06:01:31;11.07;;;5.07;;
20832;SDS011;56075;51.264;7.150;2023-02-13T06:04:03;12.30;;;5.63;;
20832;SDS011;56075;51.264;7.150;2023-02-13T06:06:34;12.87;;;6.00;;
20832;SDS011;56075;51.264;7.150;2023-02-13T06:09:06;14.53;;;5.70;;
20832;SDS011;56075;51.264;7.150;2023-02-13T06:11:37;13.57;;;5.80;;
20832;SDS011;56075;51.264;7.150;2023-02-13T06:14:09;12.20;;;5.50;;
20832;SDS011;56075;51.264;7.150;2023-02-13T06:16:41;14.83;;;6.10;;
20832;SDS011;56075;51.264;7.150;2023-02-13T06:19:12;11.23;;;5.20;;
20832;SDS011;56075;51.264;7.150;2023-02-13T06:21:43;13.10;;;6.17;;
20832;SDS011;56075;51.264;7.150;2023-02-13T06:24:15;14.17;;;5.93;;
20832;SDS011;56075;51.264;7.150;2023-02-13T06:26:46;16.63;;;7.17;;
20832;SDS011;56075;51.264;7.150;2023-02-13T06:29:17;14.10;;;6.57;;
20832;SDS011;56075;51.264;7.150;2023-02-13T06:31:49;16.63;;;6.40;;
20832;SDS011;56075;51.264;7.150;2023-02-13T06:34:20;16.97;;;6.53;;
20832;SDS011;56075;51.264;7.150;2023-02-13T06:36:52;15.27;;;6.63;;
20832;SDS011;56075;51.264;7.150;2023-02-13T06:39:23;13.43;;;6.03;;
20832;SDS011;56075;51.264;7.150;2023-02-13T06:41:54;14.90;;;6.50;;
20832;SDS011;56075;51.264;7.150;2023-02-13T06:44:26;17.07;;;6.63;;
20832;SDS011;56075;51.264;7.150;2023-02-13T06:46:57;15.27;;;6.50;;
20832;SDS011;56075;51.264;7.150;2023-02-13T06:49:29;13.73;;;5.90;;
20832;SDS011;56075;51.264;7.150;2023-02-13T06:52:00;13.60;;;6.60;;
20832;SDS011;56075;51.264;7.150;2023-02-13T06:54:32;14.17;;;6.27;;
20832;SDS011;56075;51.264;7.150;2023-02-13T06:57:03;16.03;;;6.17;;
20832;SDS011;56075;51.264;7.150;2023-02-13T06:59:35;12.27;;;6.47;;
20832;SDS011;56075;51.264;7.150;2023-02-13T07:02:08;15.90;;;6.63;;
20832;SDS011;56075;51.264;7.150;2023-02-13T07:04:40;15.80;;;6.67;;
20832;SDS011;56075;51.264;7.150;2023-02-13T07:07:11;13.93;;;6.70;;
20832;SDS011;56075;51.264;7.150;2023-02-13T07:09:42;17.07;;;6.83;;
20832;SDS011;56075;51.264;7.150;2023-02-13T07:12:14;15.80;;;6.50;;
20832;SDS011;56075;51.264;7.150;2023-02-13T07:14:45;14.83;;;6.43;;
20832;SDS011;56075;51.264;7.150;2023-02-13T07:17:16;17.63;;;7.23;;
20832;SDS011;56075;51.264;7.150;2023-02-13T07:19:48;19.07;;;7.60;;
20832;SDS011;56075;51.264;7.150;2023-02-13T07:22:19;21.40;;;7.30;;
20832;SDS011;56075;51.264;7.150;2023-02-13T07:24:50;20.60;;;7.97;;
20832;SDS011;56075;51.264;7.150;2023-02-13T07:27:22;16.30;;;6.57;;
20832;SDS011;56075;51.264;7.150;2023-02-13T07:29:54;15.87;;;6.17;;
20832;SDS011;56075;51.264;7.150;2023-02-13T07:32:27;15.97;;;6.33;;
20832;SDS011;56075;51.264;7.150;2023-02-13T07:34:58;13.63;;;6.00;;
20832;SDS011;56075;51.264;7.150;2023-02-13T07:37:30;18.33;;;6.80;;
20832;SDS011;56075;51.264;7.150;2023-02-13T07:40:01;17.53;;;6.77;;
20832;SDS011;56075;51.264;7.150;2023-02-13T07:42:33;15.90;;;6.20;;
20832;SDS011;56075;51.264;7.150;2023-02-13T07:45:05;14.60;;;6.50;;
20832;SDS011;56075;51.264;7.150;2023-02-13T07:47:37;17.33;;;6.73;;
20832;SDS011;56075;51.264;7.150;2023-02-13T07:50:08;17.93;;;7.30;;
20832;SDS011;56075;51.264;7.150;2023-02-13T07:52:40;14.83;;;6.70;;
20832;SDS011;56075;51.264;7.150;2023-02-13T07:55:13;17.07;;;6.33;;
20832;SDS011;56075;51.264;7.150;2023-02-13T07:57:45;16.47;;;6.90;;
20832;SDS011;56075;51.264;7.150;2023-02-13T08:00:16;16.67;;;6.60;;
20832;SDS011;56075;51.264;7.150;2023-02-13T08:02:49;18.10;;;7.23;;
20832;SDS011;56075;51.264;7.150;2023-02-13T08:05:20;15.53;;;7.00;;
20832;SDS011;56075;51.264;7.150;2023-02-13T08:07:52;14.57;;;6.27;;
20832;SDS011;56075;51.264;7.150;2023-02-13T08:10:23;15.10;;;6.07;;
20832;SDS011;56075;51.264;7.150;2023-02-13T08:13:14;14.20;;;5.97;;
20832;SDS011;56075;51.264;7.150;2023-02-13T08:15:46;15.73;;;7.13;;
20832;SDS011;56075;51.264;7.150;2023-02-13T08:18:18;14.70;;;6.53;;
20832;SDS011;56075;51.264;7.150;2023-02-13T08:20:49;11.00;;;5.20;;
20832;SDS011;56075;51.264;7.150;2023-02-13T08:23:21;13.53;;;6.27;;
20832;SDS011;56075;51.264;7.150;2023-02-13T08:25:52;14.30;;;6.33;;
20832;SDS011;56075;51.264;7.150;2023-02-13T08:28:24;17.07;;;7.10;;
20832;SDS011;56075;51.264;7.150;2023-02-13T08:30:55;13.33;;;5.93;;
20832;SDS011;56075;51.264;7.150;2023-02-13T08:33:28;14.07;;;5.90;;
20832;SDS011;56075;51.264;7.150;2023-02-13T08:36:01;14.37;;;6.20;;
20832;SDS011;56075;51.264;7.150;2023-02-13T08:38:34;13.87;;;6.37;;
20832;SDS011;56075;51.264;7.150;2023-02-13T08:41:05;14.47;;;6.70;;
20832;SDS011;56075;51.264;7.150;2023-02-13T08:43:37;15.97;;;6.37;;
20832;SDS011;56075;51.264;7.150;2023-02-13T08:46:08;13.80;;;6.27;;
20832;SDS011;56075;51.264;7.150;2023-02-13T08:48:40;14.17;;;6.57;;
20832;SDS011;56075;51.264;7.150;2023-02-13T08:51:12;12.33;;;6.33;;
20832;SDS011;56075;51.264;7.150;2023-02-13T08:53:44;13.90;;;5.90;;
20832;SDS011;56075;51.264;7.150;2023-02-13T08:56:15;14.07;;;6.10;;
20832;SDS011;56075;51.264;7.150;2023-02-13T08:58:47;12.57;;;5.67;;
20832;SDS011;56075;51.264;7.150;2023-02-13T09:01:19;13.17;;;6.27;;
20832;SDS011;56075;51.264;7.150;2023-02-13T09:03:51;11.50;;;5.23;;
20832;SDS011;56075;51.264;7.150;2023-02-13T09:06:22;11.10;;;5.00;;
20832;SDS011;56075;51.264;7.150;2023-02-13T09:08:55;10.03;;;4.90;;
20832;SDS011;56075;51.264;7.150;2023-02-13T09:11:27;10.33;;;5.13;;
20832;SDS011;56075;51.264;7.150;2023-02-13T09:13:58;10.00;;;4.77;;
20832;SDS011;56075;51.264;7.150;2023-02-13T09:16:30;11.50;;;5.23;;
20832;SDS011;56075;51.264;7.150;2023-02-13T09:19:02;11.47;;;5.37;;
20832;SDS011;56075;51.264;7.150;2023-02-13T09:21:33;11.03;;;4.73;;
20832;SDS011;56075;51.264;7.150;2023-02-13T09:24:11;13.33;;;4.90;;
20832;SDS011;56075;51.264;7.150;2023-02-13T09:26:42;10.70;;;4.87;;
20832;SDS011;56075;51.264;7.150;2023-02-13T09:29:14;9.70;;;4.33;;
20832;SDS011;56075;51.264;7.150;2023-02-13T09:31:45;8.63;;;3.93;;
20832;SDS011;56075;51.264;7.150;2023-02-13T09:34:16;9.10;;;4.43;;
20832;SDS011;56075;51.264;7.150;2023-02-13T09:36:51;7.80;;;4.03;;
20832;SDS011;56075;51.264;7.150;2023-02-13T09:39:23;8.60;;;4.30;;
20832;SDS011;56075;51.264;7.150;2023-02-13T09:41:54;9.07;;;4.40;;
20832;SDS011;56075;51.264;7.150;2023-02-13T09:47:15;8.30;;;4.20;;
20832;SDS011;56075;51.264;7.150;2023-02-13T09:49:51;8.30;;;3.57;;
20832;SDS011;56075;51.264;7.150;2023-02-13T09:52:27;7.40;;;3.80;;
20832;SDS011;56075;51.264;7.150;2023-02-13T09:55:48;7.50;;;3.87;;
20832;SDS011;56075;51.264;7.150;2023-02-13T10:01:03;7.30;;;3.30;;
20832;SDS011;56075;51.264;7.150;2023-02-13T10:03:41;7.95;;;3.58;;
20832;SDS011;56075;51.264;7.150;2023-02-13T10:06:52;7.38;;;3.53;;
20832;SDS011;56075;51.264;7.150;2023-02-13T10:09:28;8.52;;;3.78;;
20832;SDS011;56075;51.264;7.150;2023-02-13T10:18:03;5.27;;;3.10;;
20832;SDS011;56075;51.264;7.150;2023-02-13T10:20:37;7.28;;;3.50;;
20832;SDS011;56075;51.264;7.150;2023-02-13T10:23:17;6.28;;;3.20;;
20832;SDS011;56075;51.264;7.150;2023-02-13T10:28:37;7.07;;;3.17;;
20832;SDS011;56075;51.264;7.150;2023-02-13T10:31:38;9.50;;;3.13;;
20832;SDS011;56075;51.264;7.150;2023-02-13T10:34:11;7.07;;;2.92;;
20832;SDS011;56075;51.264;7.150;2023-02-13T10:36:46;5.97;;;2.90;;
20832;SDS011;56075;51.264;7.150;2023-02-13T10:39:21;6.53;;;2.72;;
20832;SDS011;56075;51.264;7.150;2023-02-13T10:48:08;6.35;;;2.83;;
20832;SDS011;56075;51.264;7.150;2023-02-13T10:53:57;5.78;;;2.70;;
20832;SDS011;56075;51.264;7.150;2023-02-13T11:02:26;6.47;;;2.97;;
20832;SDS011;56075;51.264;7.150;2023-02-13T11:05:00;4.95;;;2.55;;
20832;SDS011;56075;51.264;7.150;2023-02-13T11:07:42;5.88;;;2.60;;
20832;SDS011;56075;51.264;7.150;2023-02-13T11:10:23;5.70;;;2.72;;
20832;SDS011;56075;51.264;7.150;2023-02-13T11:12:55;7.05;;;2.67;;
20832;SDS011;56075;51.264;7.150;2023-02-13T11:15:28;7.35;;;3.00;;
20832;SDS011;56075;51.264;7.150;2023-02-13T11:18:12;6.93;;;3.00;;
20832;SDS011;56075;51.264;7.150;2023-02-13T11:20:49;8.38;;;2.67;;
20832;SDS011;56075;51.264;7.150;2023-02-13T11:26:08;6.45;;;3.10;;
20832;SDS011;56075;51.264;7.150;2023-02-13T11:28:55;5.45;;;2.75;;
20832;SDS011;56075;51.264;7.150;2023-02-13T11:31:31;5.40;;;2.45;;
20832;SDS011;56075;51.264;7.150;2023-02-13T11:34:21;5.88;;;2.50;;
20832;SDS011;56075;51.264;7.150;2023-02-13T11:40:03;6.05;;;2.65;;
20832;SDS011;56075;51.264;7.150;2023-02-13T11:42:59;6.18;;;2.38;;
20832;SDS011;56075;51.264;7.150;2023-02-13T11:45:30;5.40;;;2.22;;
20832;SDS011;56075;51.264;7.150;2023-02-13T11:48:01;6.47;;;2.63;;
20832;SDS011;56075;51.264;7.150;2023-02-13T11:50:49;8.43;;;2.53;;
20832;SDS011;56075;51.264;7.150;2023-02-13T11:53:29;5.63;;;2.00;;
20832;SDS011;56075;51.264;7.150;2023-02-13T11:56:07;3.72;;;2.10;;
20832;SDS011;56075;51.264;7.150;2023-02-13T11:58:45;4.78;;;2.30;;
20832;SDS011;56075;51.264;7.150;2023-02-13T12:01:30;4.90;;;2.30;;
20832;SDS011;56075;51.264;7.150;2023-02-13T12:04:17;4.07;;;2.22;;
20832;SDS011;56075;51.264;7.150;2023-02-13T12:07:02;4.65;;;2.55;;
20832;SDS011;56075;51.264;7.150;2023-02-13T12:09:39;4.20;;;2.47;;
20832;SDS011;56075;51.264;7.150;2023-02-13T12:12:28;5.38;;;2.35;;
20832;SDS011;56075;51.264;7.150;2023-02-13T12:15:16;5.05;;;2.50;;
20832;SDS011;56075;51.264;7.150;2023-02-13T12:17:52;6.07;;;2.20;;
20832;SDS011;56075;51.264;7.150;2023-02-13T12:26:25;4.35;;;1.80;;
20832;SDS011;56075;51.264;7.150;2023-02-13T12:32:09;2.83;;;1.40;;
20832;SDS011;56075;51.264;7.150;2023-02-13T12:34:53;4.40;;;2.20;;
20832;SDS011;56075;51.264;7.150;2023-02-13T12:57:24;3.22;;;1.60;;
20832;SDS011;56075;51.264;7.150;2023-02-13T13:00:48;2.35;;;1.73;;
20832;SDS011;56075;51.264;7.150;2023-02-13T13:03:38;3.67;;;1.40;;
20832;SDS011;56075;51.264;7.150;2023-02-13T13:09:26;2.88;;;1.50;;
20832;SDS011;56075;51.264;7.150;2023-02-13T13:12:06;3.65;;;1.70;;
20832;SDS011;56075;51.264;7.150;2023-02-13T13:14:58;3.10;;;1.70;;
20832;SDS011;56075;51.264;7.150;2023-02-13T13:28:41;4.00;;;1.40;;
20832;SDS011;56075;51.264;7.150;2023-02-13T13:31:19;3.42;;;1.40;;
20832;SDS011;56075;51.264;7.150;2023-02-13T13:33:55;4.55;;;1.60;;
20832;SDS011;56075;51.264;7.150;2023-02-13T13:42:06;2.65;;;1.20;;
20832;SDS011;56075;51.264;7.150;2023-02-13T13:47:22;2.80;;;1.38;;
20832;SDS011;56075;51.264;7.150;2023-02-13T13:49:55;2.25;;;1.30;;
20832;SDS011;56075;51.264;7.150;2023-02-13T13:52:31;1.50;;;1.00;;
20832;SDS011;56075;51.264;7.150;2023-02-13T13:55:04;1.65;;;1.10;;
20832;SDS011;56075;51.264;7.150;2023-02-13T14:02:51;3.50;;;1.25;;
20832;SDS011;56075;51.264;7.150;2023-02-13T14:05:59;1.27;;;0.98;;
20832;SDS011;56075;51.264;7.150;2023-02-13T14:11:33;3.72;;;0.88;;
20832;SDS011;56075;51.264;7.150;2023-02-13T14:17:00;1.40;;;0.95;;
20832;SDS011;56075;51.264;7.150;2023-02-13T14:19:33;2.92;;;1.13;;
20832;SDS011;56075;51.264;7.150;2023-02-13T14:22:30;1.20;;;0.90;;
20832;SDS011;56075;51.264;7.150;2023-02-13T14:25:05;2.13;;;1.00;;
20832;SDS011;56075;51.264;7.150;2023-02-13T14:27:58;2.22;;;1.10;;
20832;SDS011;56075;51.264;7.150;2023-02-13T14:33:45;2.40;;;1.25;;
20832;SDS011;56075;51.264;7.150;2023-02-13T14:37:41;2.00;;;1.10;;
20832;SDS011;56075;51.264;7.150;2023-02-13T14:42:49;1.60;;;1.05;;
20832;SDS011;56075;51.264;7.150;2023-02-13T14:45:31;5.07;;;1.30;;
20832;SDS011;56075;51.264;7.150;2023-02-13T14:48:05;2.20;;;1.02;;
20832;SDS011;56075;51.264;7.150;2023-02-13T14:50:47;3.08;;;1.20;;
20832;SDS011;56075;51.264;7.150;2023-02-13T14:53:29;3.28;;;0.90;;
20832;SDS011;56075;51.264;7.150;2023-02-13T14:56:17;3.08;;;0.90;;
20832;SDS011;56075;51.264;7.150;2023-02-13T14:59:13;2.03;;;1.10;;
20832;SDS011;56075;51.264;7.150;2023-02-13T15:01:51;4.22;;;1.20;;
20832;SDS011;56075;51.264;7.150;2023-02-13T15:04:46;2.35;;;1.30;;
20832;SDS011;56075;51.264;7.150;2023-02-13T15:07:26;3.65;;;1.10;;
20832;SDS011;56075;51.264;7.150;2023-02-13T15:10:23;2.05;;;1.20;;
20832;SDS011;56075;51.264;7.150;2023-02-13T15:13:17;3.47;;;1.00;;
20832;SDS011;56075;51.264;7.150;2023-02-13T15:15:53;2.08;;;0.95;;
20832;SDS011;56075;51.264;7.150;2023-02-13T15:18:44;3.92;;;1.05;;
20832;SDS011;56075;51.264;7.150;2023-02-13T15:21:22;2.60;;;1.05;;
20832;SDS011;56075;51.264;7.150;2023-02-13T15:23:55;2.58;;;1.10;;
20832;SDS011;56075;51.264;7.150;2023-02-13T15:26:27;2.97;;;1.58;;
20832;SDS011;56075;51.264;7.150;2023-02-13T15:29:01;5.95;;;3.15;;
20832;SDS011;56075;51.264;7.150;2023-02-13T15:31:33;3.33;;;1.00;;
20832;SDS011;56075;51.264;7.150;2023-02-13T15:36:57;6.72;;;2.95;;
20832;SDS011;56075;51.264;7.150;2023-02-13T15:39:29;5.35;;;2.30;;
20832;SDS011;56075;51.264;7.150;2023-02-13T15:42:01;1.33;;;0.90;;
20832;SDS011;56075;51.264;7.150;2023-02-13T15:44:34;1.13;;;0.90;;
20832;SDS011;56075;51.264;7.150;2023-02-13T15:47:13;3.20;;;1.00;;
20832;SDS011;56075;51.264;7.150;2023-02-13T15:49:57;3.20;;;1.50;;
20832;SDS011;56075;51.264;7.150;2023-02-13T15:55:02;1.58;;;0.70;;
20832;SDS011;56075;51.264;7.150;2023-02-13T15:57:34;3.10;;;1.00;;
20832;SDS011;56075;51.264;7.150;2023-02-13T16:00:05;1.60;;;0.80;;
20832;SDS011;56075;51.264;7.150;2023-02-13T16:02:43;2.47;;;0.90;;
20832;SDS011;56075;51.264;7.150;2023-02-13T16:05:17;1.20;;;0.93;;
20832;SDS011;56075;51.264;7.150;2023-02-13T16:07:50;1.55;;;1.30;;
20832;SDS011;56075;51.264;7.150;2023-02-13T16:10:30;2.30;;;1.33;;
20832;SDS011;56075;51.264;7.150;2023-02-13T16:13:06;2.33;;;1.10;;
20832;SDS011;56075;51.264;7.150;2023-02-13T16:15:46;3.92;;;1.40;;
20832;SDS011;56075;51.264;7.150;2023-02-13T16:18:17;1.98;;;1.25;;
20832;SDS011;56075;51.264;7.150;2023-02-13T16:20:53;3.45;;;1.70;;
20832;SDS011;56075;51.264;7.150;2023-02-13T16:23:25;3.05;;;1.60;;
20832;SDS011;56075;51.264;7.150;2023-02-13T16:26:00;4.57;;;1.67;;
20832;SDS011;56075;51.264;7.150;2023-02-13T16:28:35;3.00;;;1.38;;
20832;SDS011;56075;51.264;7.150;2023-02-13T16:31:11;3.85;;;1.50;;
20832;SDS011;56075;51.264;7.150;2023-02-13T16:33:45;2.50;;;1.27;;
20832;SDS011;56075;51.264;7.150;2023-02-13T16:36:17;3.97;;;1.30;;
20832;SDS011;56075;51.264;7.150;2023-02-13T16:38:56;2.58;;;1.10;;
20832;SDS011;56075;51.264;7.150;2023-02-13T16:41:39;1.35;;;0.93;;
20832;SDS011;56075;51.264;7.150;2023-02-13T16:47:21;2.47;;;1.30;;
20832;SDS011;56075;51.264;7.150;2023-02-13T16:49:54;4.05;;;1.38;;
20832;SDS011;56075;51.264;7.150;2023-02-13T16:52:26;2.67;;;1.38;;
20832;SDS011;56075;51.264;7.150;2023-02-13T16:54:58;3.33;;;1.50;;
20832;SDS011;56075;51.264;7.150;2023-02-13T16:57:32;3.92;;;1.50;;
20832;SDS011;56075;51.264;7.150;2023-02-13T17:00:05;2.95;;;1.23;;
20832;SDS011;56075;51.264;7.150;2023-02-13T17:02:51;2.58;;;1.50;;
20832;SDS011;56075;51.264;7.150;2023-02-13T17:05:23;2.85;;;1.10;;
20832;SDS011;56075;51.264;7.150;2023-02-13T17:07:57;7.95;;;1.50;;
20832;SDS011;56075;51.264;7.150;2023-02-13T17:10:35;2.75;;;1.13;;
20832;SDS011;56075;51.264;7.150;2023-02-13T17:15:41;3.53;;;1.20;;
20832;SDS011;56075;51.264;7.150;2023-02-13T17:18:14;3.22;;;1.30;;
20832;SDS011;56075;51.264;7.150;2023-02-13T17:20:45;2.50;;;1.30;;
20832;SDS011;56075;51.264;7.150;2023-02-13T17:23:18;3.30;;;1.63;;
20832;SDS011;56075;51.264;7.150;2023-02-13T17:25:52;11.32;;;4.60;;
20832;SDS011;56075;51.264;7.150;2023-02-13T17:28:24;14.70;;;5.30;;
20832;SDS011;56075;51.264;7.150;2023-02-13T17:30:57;16.05;;;5.00;;
20832;SDS011;56075;51.264;7.150;2023-02-13T17:33:29;10.77;;;4.13;;
20832;SDS011;56075;51.264;7.150;2023-02-13T17:36:04;14.07;;;5.07;;
20832;SDS011;56075;51.264;7.150;2023-02-13T17:38:36;15.68;;;3.70;;
20832;SDS011;56075;51.264;7.150;2023-02-13T17:41:11;9.60;;;3.80;;
20832;SDS011;56075;51.264;7.150;2023-02-13T17:43:46;9.05;;;3.80;;
20832;SDS011;56075;51.264;7.150;2023-02-13T17:46:17;7.90;;;3.65;;
20832;SDS011;56075;51.264;7.150;2023-02-13T17:48:49;10.20;;;3.75;;
20832;SDS011;56075;51.264;7.150;2023-02-13T17:51:20;7.82;;;3.47;;
20832;SDS011;56075;51.264;7.150;2023-02-13T17:53:51;9.30;;;3.05;;
20832;SDS011;56075;51.264;7.150;2023-02-13T17:56:25;11.68;;;3.42;;
20832;SDS011;56075;51.264;7.150;2023-02-13T17:58:56;6.25;;;2.60;;
20832;SDS011;56075;51.264;7.150;2023-02-13T18:01:27;5.57;;;2.63;;
20832;SDS011;56075;51.264;7.150;2023-02-13T18:03:59;6.40;;;2.70;;
20832;SDS011;56075;51.264;7.150;2023-02-13T18:06:30;9.20;;;2.53;;
20832;SDS011;56075;51.264;7.150;2023-02-13T18:09:01;11.10;;;3.40;;
20832;SDS011;56075;51.264;7.150;2023-02-13T18:11:32;8.73;;;3.50;;
20832;SDS011;56075;51.264;7.150;2023-02-13T18:14:04;8.45;;;2.80;;
20832;SDS011;56075;51.264;7.150;2023-02-13T18:16:35;9.82;;;2.97;;
20832;SDS011;56075;51.264;7.150;2023-02-13T18:19:07;12.65;;;3.50;;
20832;SDS011;56075;51.264;7.150;2023-02-13T18:21:39;7.25;;;3.33;;
20832;SDS011;56075;51.264;7.150;2023-02-13T18:24:10;7.65;;;3.20;;
20832;SDS011;56075;51.264;7.150;2023-02-13T18:26:41;6.60;;;2.90;;
20832;SDS011;56075;51.264;7.150;2023-02-13T18:29:12;6.63;;;2.90;;